sensor_id;sensor_type;location;lat;lon;timestamp;P1;durP1;ratioP1;P2;durP2;ratioP2
85662;SDS011;76094;55.506;37.950;2024-01-27T00:00:22;30.15;;;14.35;;
85662;SDS011;76094;55.506;37.950;2024-01-27T00:02:48;28.73;;;13.80;;
85662;SDS011;76094;55.506;37.950;2024-01-27T00:05:14;26.27;;;14.40;;
85662;SDS011;76094;55.506;37.950;2024-01-27T00:07:40;26.38;;;13.05;;
85662;SDS011;76094;55.506;37.950;2024-01-27T00:10:07;23.88;;;11.85;;
85662;SDS011;76094;55.506;37.950;2024-01-27T00:12:34;23.85;;;11.98;;
85662;SDS011;76094;55.506;37.950;2024-01-27T00:15:01;23.10;;;11.40;;
85662;SDS011;76094;55.506;37.950;2024-01-27T00:17:29;24.63;;;12.55;;
85662;SDS011;76094;55.506;37.950;2024-01-27T00:19:55;23.80;;;12.73;;
85662;SDS011;76094;55.506;37.950;2024-01-27T00:22:21;27.70;;;13.05;;
85662;SDS011;76094;55.506;37.950;2024-01-27T00:24:48;23.35;;;12.43;;
85662;SDS011;76094;55.506;37.950;2024-01-27T00:27:14;23.98;;;12.63;;
85662;SDS011;76094;55.506;37.950;2024-01-27T00:29:41;26.88;;;13.25;;
85662;SDS011;76094;55.506;37.950;2024-01-27T00:32:07;22.30;;;12.02;;
85662;SDS011;76094;55.506;37.950;2024-01-27T00:34:33;23.13;;;12.70;;
85662;SDS011;76094;55.506;37.950;2024-01-27T00:36:59;24.50;;;12.88;;
85662;SDS011;76094;55.506;37.950;2024-01-27T00:39:26;25.83;;;13.30;;
85662;SDS011;76094;55.506;37.950;2024-01-27T00:41:52;23.63;;;13.05;;
85662;SDS011;76094;55.506;37.950;2024-01-27T00:44:20;25.63;;;13.68;;
85662;SDS011;76094;55.506;37.950;2024-01-27T00:46:46;31.25;;;14.68;;
85662;SDS011;76094;55.506;37.950;2024-01-27T00:49:13;27.52;;;13.15;;
85662;SDS011;76094;55.506;37.950;2024-01-27T00:51:39;28.90;;;14.05;;
85662;SDS011;76094;55.506;37.950;2024-01-27T00:54:05;24.85;;;13.60;;
85662;SDS011;76094;55.506;37.950;2024-01-27T00:56:32;23.88;;;12.18;;
85662;SDS011;76094;55.506;37.950;2024-01-27T00:58:58;27.35;;;13.32;;
85662;SDS011;76094;55.506;37.950;2024-01-27T01:01:24;26.65;;;13.18;;
85662;SDS011;76094;55.506;37.950;2024-01-27T01:03:50;25.33;;;12.75;;
85662;SDS011;76094;55.506;37.950;2024-01-27T01:06:17;26.15;;;13.48;;
85662;SDS011;76094;55.506;37.950;2024-01-27T01:08:43;32.33;;;14.15;;
85662;SDS011;76094;55.506;37.950;2024-01-27T01:11:09;26.92;;;13.13;;
85662;SDS011;76094;55.506;37.950;2024-01-27T01:13:35;27.10;;;14.18;;
85662;SDS011;76094;55.506;37.950;2024-01-27T01:16:02;33.08;;;13.75;;
85662;SDS011;76094;55.506;37.950;2024-01-27T01:18:29;22.83;;;12.70;;
85662;SDS011;76094;55.506;37.950;2024-01-27T01:20:55;23.95;;;12.55;;
85662;SDS011;76094;55.506;37.950;2024-01-27T01:23:22;26.48;;;13.43;;
85662;SDS011;76094;55.506;37.950;2024-01-27T01:25:48;26.23;;;13.10;;
85662;SDS011;76094;55.506;37.950;2024-01-27T01:28:14;27.67;;;14.90;;
85662;SDS011;76094;55.506;37.950;2024-01-27T01:30:40;27.80;;;11.75;;
85662;SDS011;76094;55.506;37.950;2024-01-27T01:33:07;22.33;;;12.18;;
85662;SDS011;76094;55.506;37.950;2024-01-27T01:35:33;24.33;;;11.77;;
85662;SDS011;76094;55.506;37.950;2024-01-27T01:37:59;25.90;;;14.70;;
85662;SDS011;76094;55.506;37.950;2024-01-27T01:40:25;32.53;;;16.10;;
85662;SDS011;76094;55.506;37.950;2024-01-27T01:42:52;34.83;;;18.02;;
85662;SDS011;76094;55.506;37.950;2024-01-27T01:45:18;40.30;;;19.35;;
85662;SDS011;76094;55.506;37.950;2024-01-27T01:47:44;38.35;;;18.33;;
85662;SDS011;76094;55.506;37.950;2024-01-27T01:50:11;33.65;;;17.60;;
85662;SDS011;76094;55.506;37.950;2024-01-27T01:52:37;33.92;;;16.83;;
85662;SDS011;76094;55.506;37.950;2024-01-27T01:55:04;32.15;;;18.23;;
85662;SDS011;76094;55.506;37.950;2024-01-27T01:57:31;38.55;;;17.52;;
85662;SDS011;76094;55.506;37.950;2024-01-27T01:59:59;30.67;;;16.75;;
85662;SDS011;76094;55.506;37.950;2024-01-27T02:02:25;32.58;;;17.83;;
85662;SDS011;76094;55.506;37.950;2024-01-27T02:04:52;32.17;;;16.88;;
85662;SDS011;76094;55.506;37.950;2024-01-27T02:07:18;31.92;;;16.73;;
85662;SDS011;76094;55.506;37.950;2024-01-27T02:09:44;35.83;;;16.30;;
85662;SDS011;76094;55.506;37.950;2024-01-27T02:12:11;33.25;;;17.63;;
85662;SDS011;76094;55.506;37.950;2024-01-27T02:14:37;36.42;;;17.33;;
85662;SDS011;76094;55.506;37.950;2024-01-27T02:17:03;32.60;;;17.20;;
85662;SDS011;76094;55.506;37.950;2024-01-27T02:19:30;37.40;;;17.17;;
85662;SDS011;76094;55.506;37.950;2024-01-27T02:21:56;34.13;;;17.23;;
85662;SDS011;76094;55.506;37.950;2024-01-27T02:24:22;39.50;;;17.52;;
85662;SDS011;76094;55.506;37.950;2024-01-27T02:26:49;33.85;;;17.40;;
85662;SDS011;76094;55.506;37.950;2024-01-27T02:29:15;30.15;;;16.52;;
85662;SDS011;76094;55.506;37.950;2024-01-27T02:31:41;37.70;;;18.38;;
85662;SDS011;76094;55.506;37.950;2024-01-27T02:34:08;33.90;;;17.15;;
85662;SDS011;76094;55.506;37.950;2024-01-27T02:36:34;29.52;;;16.73;;
85662;SDS011;76094;55.506;37.950;2024-01-27T02:39:00;34.47;;;17.27;;
85662;SDS011;76094;55.506;37.950;2024-01-27T02:41:27;35.85;;;19.08;;
85662;SDS011;76094;55.506;37.950;2024-01-27T02:43:53;40.47;;;18.70;;
85662;SDS011;76094;55.506;37.950;2024-01-27T02:46:19;47.75;;;18.65;;
85662;SDS011;76094;55.506;37.950;2024-01-27T02:48:46;41.15;;;19.80;;
85662;SDS011;76094;55.506;37.950;2024-01-27T02:51:12;38.38;;;19.45;;
85662;SDS011;76094;55.506;37.950;2024-01-27T02:53:38;42.10;;;19.60;;
85662;SDS011;76094;55.506;37.950;2024-01-27T02:56:08;40.65;;;19.92;;
85662;SDS011;76094;55.506;37.950;2024-01-27T02:58:34;39.03;;;19.45;;
85662;SDS011;76094;55.506;37.950;2024-01-27T03:01:00;40.45;;;19.30;;
85662;SDS011;76094;55.506;37.950;2024-01-27T03:03:27;40.72;;;19.98;;
85662;SDS011;76094;55.506;37.950;2024-01-27T03:05:54;33.28;;;18.45;;
85662;SDS011;76094;55.506;37.950;2024-01-27T03:08:21;35.03;;;18.48;;
85662;SDS011;76094;55.506;37.950;2024-01-27T03:10:47;36.08;;;17.55;;
85662;SDS011;76094;55.506;37.950;2024-01-27T03:13:13;38.72;;;17.90;;
85662;SDS011;76094;55.506;37.950;2024-01-27T03:15:40;33.25;;;16.88;;
85662;SDS011;76094;55.506;37.950;2024-01-27T03:18:08;38.88;;;16.45;;
85662;SDS011;76094;55.506;37.950;2024-01-27T03:20:34;36.42;;;17.88;;
85662;SDS011;76094;55.506;37.950;2024-01-27T03:23:01;30.70;;;17.00;;
85662;SDS011;76094;55.506;37.950;2024-01-27T03:25:27;36.55;;;17.38;;
85662;SDS011;76094;55.506;37.950;2024-01-27T03:27:53;34.38;;;17.50;;
85662;SDS011;76094;55.506;37.950;2024-01-27T03:30:19;33.63;;;16.58;;
85662;SDS011;76094;55.506;37.950;2024-01-27T03:32:46;38.50;;;17.65;;
85662;SDS011;76094;55.506;37.950;2024-01-27T03:35:12;47.50;;;19.08;;
85662;SDS011;76094;55.506;37.950;2024-01-27T03:37:38;35.88;;;18.40;;
85662;SDS011;76094;55.506;37.950;2024-01-27T03:40:05;37.53;;;17.60;;
85662;SDS011;76094;55.506;37.950;2024-01-27T03:42:32;37.90;;;17.98;;
85662;SDS011;76094;55.506;37.950;2024-01-27T03:44:58;45.38;;;17.77;;
85662;SDS011;76094;55.506;37.950;2024-01-27T03:47:24;40.25;;;18.75;;
85662;SDS011;76094;55.506;37.950;2024-01-27T03:49:50;36.65;;;18.60;;
85662;SDS011;76094;55.506;37.950;2024-01-27T03:52:17;38.17;;;17.38;;
85662;SDS011;76094;55.506;37.950;2024-01-27T03:54:43;38.60;;;17.80;;
85662;SDS011;76094;55.506;37.950;2024-01-27T03:57:09;36.65;;;18.42;;
85662;SDS011;76094;55.506;37.950;2024-01-27T03:59:35;37.45;;;18.20;;
85662;SDS011;76094;55.506;37.950;2024-01-27T04:02:02;34.38;;;17.48;;
85662;SDS011;76094;55.506;37.950;2024-01-27T04:04:28;39.40;;;17.00;;
85662;SDS011;76094;55.506;37.950;2024-01-27T04:06:55;33.92;;;16.13;;
85662;SDS011;76094;55.506;37.950;2024-01-27T04:09:21;36.15;;;17.35;;
85662;SDS011;76094;55.506;37.950;2024-01-27T04:11:47;31.60;;;15.95;;
85662;SDS011;76094;55.506;37.950;2024-01-27T04:14:14;30.17;;;15.73;;
85662;SDS011;76094;55.506;37.950;2024-01-27T04:16:40;34.13;;;16.48;;
85662;SDS011;76094;55.506;37.950;2024-01-27T04:19:06;36.22;;;16.25;;
85662;SDS011;76094;55.506;37.950;2024-01-27T04:21:33;31.00;;;15.40;;
85662;SDS011;76094;55.506;37.950;2024-01-27T04:23:59;32.42;;;14.57;;
85662;SDS011;76094;55.506;37.950;2024-01-27T04:26:25;36.75;;;15.77;;
85662;SDS011;76094;55.506;37.950;2024-01-27T04:28:51;33.15;;;15.23;;
85662;SDS011;76094;55.506;37.950;2024-01-27T04:31:18;31.58;;;15.40;;
85662;SDS011;76094;55.506;37.950;2024-01-27T04:33:44;31.95;;;15.40;;
85662;SDS011;76094;55.506;37.950;2024-01-27T04:36:10;41.33;;;18.35;;
85662;SDS011;76094;55.506;37.950;2024-01-27T04:38:37;36.35;;;15.60;;
85662;SDS011;76094;55.506;37.950;2024-01-27T04:41:03;31.50;;;14.90;;
85662;SDS011;76094;55.506;37.950;2024-01-27T04:43:29;32.08;;;14.98;;
85662;SDS011;76094;55.506;37.950;2024-01-27T04:45:55;33.25;;;15.43;;
85662;SDS011;76094;55.506;37.950;2024-01-27T04:48:22;34.80;;;15.93;;
85662;SDS011;76094;55.506;37.950;2024-01-27T04:50:48;30.40;;;15.63;;
85662;SDS011;76094;55.506;37.950;2024-01-27T04:53:14;36.33;;;16.60;;
85662;SDS011;76094;55.506;37.950;2024-01-27T04:55:41;31.25;;;15.27;;
85662;SDS011;76094;55.506;37.950;2024-01-27T04:58:07;38.40;;;15.95;;
85662;SDS011;76094;55.506;37.950;2024-01-27T05:00:33;31.95;;;16.10;;
85662;SDS011;76094;55.506;37.950;2024-01-27T05:03:00;34.20;;;16.00;;
85662;SDS011;76094;55.506;37.950;2024-01-27T05:05:30;29.67;;;14.02;;
85662;SDS011;76094;55.506;37.950;2024-01-27T05:07:56;34.38;;;15.20;;
85662;SDS011;76094;55.506;37.950;2024-01-27T05:10:22;36.47;;;16.00;;
85662;SDS011;76094;55.506;37.950;2024-01-27T05:12:50;34.78;;;16.08;;
85662;SDS011;76094;55.506;37.950;2024-01-27T05:15:16;30.95;;;15.27;;
85662;SDS011;76094;55.506;37.950;2024-01-27T05:17:42;32.28;;;15.95;;
85662;SDS011;76094;55.506;37.950;2024-01-27T05:20:08;31.95;;;15.50;;
85662;SDS011;76094;55.506;37.950;2024-01-27T05:22:35;41.20;;;16.45;;
85662;SDS011;76094;55.506;37.950;2024-01-27T05:25:01;31.33;;;15.90;;
85662;SDS011;76094;55.506;37.950;2024-01-27T05:27:31;32.45;;;15.50;;
85662;SDS011;76094;55.506;37.950;2024-01-27T05:29:57;35.22;;;16.55;;
85662;SDS011;76094;55.506;37.950;2024-01-27T05:32:23;34.15;;;15.98;;
85662;SDS011;76094;55.506;37.950;2024-01-27T05:34:50;39.63;;;16.35;;
85662;SDS011;76094;55.506;37.950;2024-01-27T05:37:16;38.00;;;16.85;;
85662;SDS011;76094;55.506;37.950;2024-01-27T05:39:42;35.75;;;15.98;;
85662;SDS011;76094;55.506;37.950;2024-01-27T05:42:08;33.85;;;17.38;;
85662;SDS011;76094;55.506;37.950;2024-01-27T05:44:35;41.95;;;17.23;;
85662;SDS011;76094;55.506;37.950;2024-01-27T05:47:01;38.03;;;17.45;;
85662;SDS011;76094;55.506;37.950;2024-01-27T05:49:27;39.35;;;17.38;;
85662;SDS011;76094;55.506;37.950;2024-01-27T05:51:54;36.63;;;17.50;;
85662;SDS011;76094;55.506;37.950;2024-01-27T05:54:20;32.67;;;15.27;;
85662;SDS011;76094;55.506;37.950;2024-01-27T05:56:46;32.92;;;15.93;;
85662;SDS011;76094;55.506;37.950;2024-01-27T05:59:12;35.33;;;17.25;;
85662;SDS011;76094;55.506;37.950;2024-01-27T06:01:39;33.30;;;18.05;;
85662;SDS011;76094;55.506;37.950;2024-01-27T06:04:06;32.58;;;16.95;;
85662;SDS011;76094;55.506;37.950;2024-01-27T06:06:33;30.23;;;15.48;;
85662;SDS011;76094;55.506;37.950;2024-01-27T06:08:59;35.08;;;15.80;;
85662;SDS011;76094;55.506;37.950;2024-01-27T06:11:25;32.40;;;15.10;;
85662;SDS011;76094;55.506;37.950;2024-01-27T06:13:52;35.22;;;15.10;;
85662;SDS011;76094;55.506;37.950;2024-01-27T06:16:19;26.45;;;14.40;;
85662;SDS011;76094;55.506;37.950;2024-01-27T06:18:45;33.20;;;14.98;;
85662;SDS011;76094;55.506;37.950;2024-01-27T06:21:11;32.42;;;14.38;;
85662;SDS011;76094;55.506;37.950;2024-01-27T06:23:37;34.15;;;16.17;;
85662;SDS011;76094;55.506;37.950;2024-01-27T06:26:07;30.08;;;15.02;;
85662;SDS011;76094;55.506;37.950;2024-01-27T06:28:34;30.75;;;14.70;;
85662;SDS011;76094;55.506;37.950;2024-01-27T06:31:02;30.08;;;14.73;;
85662;SDS011;76094;55.506;37.950;2024-01-27T06:33:30;29.88;;;14.68;;
85662;SDS011;76094;55.506;37.950;2024-01-27T06:35:56;32.70;;;14.13;;
85662;SDS011;76094;55.506;37.950;2024-01-27T06:38:22;26.27;;;13.55;;
85662;SDS011;76094;55.506;37.950;2024-01-27T06:40:49;29.60;;;12.95;;
85662;SDS011;76094;55.506;37.950;2024-01-27T06:43:15;29.05;;;13.80;;
85662;SDS011;76094;55.506;37.950;2024-01-27T06:45:41;35.47;;;13.98;;
85662;SDS011;76094;55.506;37.950;2024-01-27T06:48:08;29.20;;;15.10;;
85662;SDS011;76094;55.506;37.950;2024-01-27T06:50:34;29.33;;;14.63;;
85662;SDS011;76094;55.506;37.950;2024-01-27T06:53:01;28.48;;;13.90;;
85662;SDS011;76094;55.506;37.950;2024-01-27T06:55:27;27.10;;;13.90;;
85662;SDS011;76094;55.506;37.950;2024-01-27T06:57:54;30.65;;;13.57;;
85662;SDS011;76094;55.506;37.950;2024-01-27T07:00:21;24.45;;;13.63;;
85662;SDS011;76094;55.506;37.950;2024-01-27T07:02:47;28.10;;;14.20;;
85662;SDS011;76094;55.506;37.950;2024-01-27T07:05:14;42.80;;;14.32;;
85662;SDS011;76094;55.506;37.950;2024-01-27T07:07:40;28.33;;;13.95;;
85662;SDS011;76094;55.506;37.950;2024-01-27T07:10:07;30.50;;;14.20;;
85662;SDS011;76094;55.506;37.950;2024-01-27T07:12:34;24.90;;;13.55;;
85662;SDS011;76094;55.506;37.950;2024-01-27T07:15:00;27.50;;;14.07;;
85662;SDS011;76094;55.506;37.950;2024-01-27T07:17:29;34.03;;;16.90;;
85662;SDS011;76094;55.506;37.950;2024-01-27T07:20:00;34.25;;;17.23;;
85662;SDS011;76094;55.506;37.950;2024-01-27T07:22:26;33.72;;;16.27;;
85662;SDS011;76094;55.506;37.950;2024-01-27T07:24:53;27.70;;;14.07;;
85662;SDS011;76094;55.506;37.950;2024-01-27T07:27:19;32.00;;;15.45;;
85662;SDS011;76094;55.506;37.950;2024-01-27T07:29:45;28.85;;;14.98;;
85662;SDS011;76094;55.506;37.950;2024-01-27T07:32:12;31.33;;;15.60;;
85662;SDS011;76094;55.506;37.950;2024-01-27T07:34:42;35.63;;;16.38;;
85662;SDS011;76094;55.506;37.950;2024-01-27T07:37:09;35.75;;;17.63;;
85662;SDS011;76094;55.506;37.950;2024-01-27T07:39:36;36.30;;;16.77;;
85662;SDS011;76094;55.506;37.950;2024-01-27T07:42:02;33.10;;;16.17;;
85662;SDS011;76094;55.506;37.950;2024-01-27T07:44:28;29.67;;;14.93;;
85662;SDS011;76094;55.506;37.950;2024-01-27T07:46:55;28.83;;;15.57;;
85662;SDS011;76094;55.506;37.950;2024-01-27T07:49:22;28.95;;;15.30;;
85662;SDS011;76094;55.506;37.950;2024-01-27T07:51:48;25.02;;;14.18;;
85662;SDS011;76094;55.506;37.950;2024-01-27T07:54:14;31.13;;;14.70;;
85662;SDS011;76094;55.506;37.950;2024-01-27T07:56:40;32.15;;;15.93;;
85662;SDS011;76094;55.506;37.950;2024-01-27T07:59:07;28.27;;;16.25;;
85662;SDS011;76094;55.506;37.950;2024-01-27T08:01:42;24.83;;;14.60;;
85662;SDS011;76094;55.506;37.950;2024-01-27T08:04:10;29.83;;;14.50;;
85662;SDS011;76094;55.506;37.950;2024-01-27T08:06:46;28.55;;;14.55;;
85662;SDS011;76094;55.506;37.950;2024-01-27T08:09:14;28.98;;;15.02;;
85662;SDS011;76094;55.506;37.950;2024-01-27T08:11:40;39.58;;;15.07;;
85662;SDS011;76094;55.506;37.950;2024-01-27T08:14:07;35.45;;;14.85;;
85662;SDS011;76094;55.506;37.950;2024-01-27T08:16:33;25.70;;;13.30;;
85662;SDS011;76094;55.506;37.950;2024-01-27T08:18:59;26.95;;;13.63;;
85662;SDS011;76094;55.506;37.950;2024-01-27T08:21:25;24.92;;;12.35;;
85662;SDS011;76094;55.506;37.950;2024-01-27T08:23:52;26.13;;;13.00;;
85662;SDS011;76094;55.506;37.950;2024-01-27T08:26:19;24.95;;;13.77;;
85662;SDS011;76094;55.506;37.950;2024-01-27T08:28:46;27.42;;;12.90;;
85662;SDS011;76094;55.506;37.950;2024-01-27T08:31:13;26.08;;;12.55;;
85662;SDS011;76094;55.506;37.950;2024-01-27T08:33:39;25.77;;;13.48;;
85662;SDS011;76094;55.506;37.950;2024-01-27T08:36:06;23.30;;;13.15;;
85662;SDS011;76094;55.506;37.950;2024-01-27T08:38:32;24.65;;;13.43;;
85662;SDS011;76094;55.506;37.950;2024-01-27T08:40:59;24.27;;;12.95;;
85662;SDS011;76094;55.506;37.950;2024-01-27T08:43:26;23.02;;;12.57;;
85662;SDS011;76094;55.506;37.950;2024-01-27T08:45:52;26.33;;;12.63;;
85662;SDS011;76094;55.506;37.950;2024-01-27T08:48:20;22.83;;;12.52;;
85662;SDS011;76094;55.506;37.950;2024-01-27T08:50:46;25.10;;;12.05;;
85662;SDS011;76094;55.506;37.950;2024-01-27T08:53:13;26.10;;;12.95;;
85662;SDS011;76094;55.506;37.950;2024-01-27T08:55:39;20.17;;;12.38;;
85662;SDS011;76094;55.506;37.950;2024-01-27T08:58:06;23.48;;;13.23;;
85662;SDS011;76094;55.506;37.950;2024-01-27T09:00:32;24.50;;;12.80;;
85662;SDS011;76094;55.506;37.950;2024-01-27T09:02:58;21.02;;;11.63;;
85662;SDS011;76094;55.506;37.950;2024-01-27T09:05:25;26.45;;;13.20;;
85662;SDS011;76094;55.506;37.950;2024-01-27T09:07:51;24.60;;;12.90;;
85662;SDS011;76094;55.506;37.950;2024-01-27T09:10:17;21.75;;;12.65;;
85662;SDS011;76094;55.506;37.950;2024-01-27T09:12:44;24.15;;;12.52;;
85662;SDS011;76094;55.506;37.950;2024-01-27T09:15:10;25.38;;;13.10;;
85662;SDS011;76094;55.506;37.950;2024-01-27T09:17:36;27.10;;;13.30;;
85662;SDS011;76094;55.506;37.950;2024-01-27T09:20:03;27.70;;;12.88;;
85662;SDS011;76094;55.506;37.950;2024-01-27T09:22:29;24.30;;;12.38;;
85662;SDS011;76094;55.506;37.950;2024-01-27T09:24:56;28.52;;;12.50;;
85662;SDS011;76094;55.506;37.950;2024-01-27T09:27:22;26.60;;;11.85;;
85662;SDS011;76094;55.506;37.950;2024-01-27T09:29:49;22.08;;;12.38;;
85662;SDS011;76094;55.506;37.950;2024-01-27T09:32:15;21.83;;;12.73;;
85662;SDS011;76094;55.506;37.950;2024-01-27T09:34:41;19.88;;;12.07;;
85662;SDS011;76094;55.506;37.950;2024-01-27T09:37:08;23.77;;;12.82;;
85662;SDS011;76094;55.506;37.950;2024-01-27T09:39:34;22.00;;;11.88;;
85662;SDS011;76094;55.506;37.950;2024-01-27T09:42:00;23.80;;;12.70;;
85662;SDS011;76094;55.506;37.950;2024-01-27T09:44:30;25.45;;;12.35;;
85662;SDS011;76094;55.506;37.950;2024-01-27T09:46:57;24.38;;;13.25;;
85662;SDS011;76094;55.506;37.950;2024-01-27T09:49:24;23.30;;;12.68;;
85662;SDS011;76094;55.506;37.950;2024-01-27T09:51:52;22.55;;;11.80;;
85662;SDS011;76094;55.506;37.950;2024-01-27T09:54:18;22.23;;;12.00;;
85662;SDS011;76094;55.506;37.950;2024-01-27T09:56:46;25.02;;;13.82;;
85662;SDS011;76094;55.506;37.950;2024-01-27T09:59:12;28.67;;;12.93;;
85662;SDS011;76094;55.506;37.950;2024-01-27T10:01:41;33.30;;;16.75;;
85662;SDS011;76094;55.506;37.950;2024-01-27T10:04:08;25.70;;;14.82;;
85662;SDS011;76094;55.506;37.950;2024-01-27T10:06:35;28.35;;;15.07;;
85662;SDS011;76094;55.506;37.950;2024-01-27T10:09:01;24.08;;;13.13;;
85662;SDS011;76094;55.506;37.950;2024-01-27T10:11:27;23.70;;;12.23;;
85662;SDS011;76094;55.506;37.950;2024-01-27T10:13:54;28.15;;;13.73;;
85662;SDS011;76094;55.506;37.950;2024-01-27T10:16:28;22.35;;;12.60;;
85662;SDS011;76094;55.506;37.950;2024-01-27T10:19:00;24.83;;;13.63;;
85662;SDS011;76094;55.506;37.950;2024-01-27T10:21:27;22.70;;;13.27;;
85662;SDS011;76094;55.506;37.950;2024-01-27T10:23:54;25.25;;;13.05;;
85662;SDS011;76094;55.506;37.950;2024-01-27T10:26:20;28.92;;;13.38;;
85662;SDS011;76094;55.506;37.950;2024-01-27T10:28:54;28.23;;;14.25;;
85662;SDS011;76094;55.506;37.950;2024-01-27T10:31:20;27.02;;;12.70;;
85662;SDS011;76094;55.506;37.950;2024-01-27T10:36:22;26.75;;;13.30;;
85662;SDS011;76094;55.506;37.950;2024-01-27T10:38:49;27.48;;;15.05;;
85662;SDS011;76094;55.506;37.950;2024-01-27T10:41:22;29.88;;;14.40;;
85662;SDS011;76094;55.506;37.950;2024-01-27T10:43:50;27.92;;;14.98;;
85662;SDS011;76094;55.506;37.950;2024-01-27T10:46:19;29.52;;;15.05;;
85662;SDS011;76094;55.506;37.950;2024-01-27T10:48:52;30.90;;;15.55;;
85662;SDS011;76094;55.506;37.950;2024-01-27T10:51:22;33.30;;;16.60;;
85662;SDS011;76094;55.506;37.950;2024-01-27T10:54:03;37.08;;;16.40;;
85662;SDS011;76094;55.506;37.950;2024-01-27T10:56:31;33.50;;;17.05;;
85662;SDS011;76094;55.506;37.950;2024-01-27T10:58:58;34.83;;;17.33;;
85662;SDS011;76094;55.506;37.950;2024-01-27T11:01:25;33.22;;;17.02;;
85662;SDS011;76094;55.506;37.950;2024-01-27T11:03:52;33.05;;;17.90;;
85662;SDS011;76094;55.506;37.950;2024-01-27T11:06:21;34.53;;;18.02;;
85662;SDS011;76094;55.506;37.950;2024-01-27T11:08:51;38.28;;;18.30;;
85662;SDS011;76094;55.506;37.950;2024-01-27T11:11:17;35.05;;;17.13;;
85662;SDS011;76094;55.506;37.950;2024-01-27T11:13:44;33.83;;;16.63;;
85662;SDS011;76094;55.506;37.950;2024-01-27T11:16:17;34.08;;;17.75;;
85662;SDS011;76094;55.506;37.950;2024-01-27T11:18:44;32.42;;;17.65;;
85662;SDS011;76094;55.506;37.950;2024-01-27T11:21:14;38.80;;;19.05;;
85662;SDS011;76094;55.506;37.950;2024-01-27T11:23:42;36.95;;;17.20;;
85662;SDS011;76094;55.506;37.950;2024-01-27T11:26:09;34.72;;;16.42;;
85662;SDS011;76094;55.506;37.950;2024-01-27T11:28:36;33.50;;;16.20;;
85662;SDS011;76094;55.506;37.950;2024-01-27T11:31:04;31.55;;;16.40;;
85662;SDS011;76094;55.506;37.950;2024-01-27T11:33:31;29.92;;;16.88;;
85662;SDS011;76094;55.506;37.950;2024-01-27T11:36:01;34.65;;;16.75;;
85662;SDS011;76094;55.506;37.950;2024-01-27T11:38:31;32.60;;;16.67;;
85662;SDS011;76094;55.506;37.950;2024-01-27T11:40:59;35.25;;;16.90;;
85662;SDS011;76094;55.506;37.950;2024-01-27T11:43:26;34.92;;;17.67;;
85662;SDS011;76094;55.506;37.950;2024-01-27T11:45:58;37.00;;;18.20;;
85662;SDS011;76094;55.506;37.950;2024-01-27T11:48:25;38.63;;;17.80;;
85662;SDS011;76094;55.506;37.950;2024-01-27T11:51:05;38.05;;;17.90;;
85662;SDS011;76094;55.506;37.950;2024-01-27T11:53:34;41.65;;;18.30;;
85662;SDS011;76094;55.506;37.950;2024-01-27T11:56:00;39.67;;;17.85;;
85662;SDS011;76094;55.506;37.950;2024-01-27T11:58:27;35.88;;;17.83;;
85662;SDS011;76094;55.506;37.950;2024-01-27T12:00:54;34.47;;;17.88;;
85662;SDS011;76094;55.506;37.950;2024-01-27T12:03:20;40.17;;;18.65;;
85662;SDS011;76094;55.506;37.950;2024-01-27T12:05:47;37.40;;;18.00;;
85662;SDS011;76094;55.506;37.950;2024-01-27T12:08:13;33.85;;;17.40;;
85662;SDS011;76094;55.506;37.950;2024-01-27T12:10:39;36.25;;;17.45;;
85662;SDS011;76094;55.506;37.950;2024-01-27T12:13:06;34.50;;;17.40;;
85662;SDS011;76094;55.506;37.950;2024-01-27T12:15:32;35.22;;;17.55;;
85662;SDS011;76094;55.506;37.950;2024-01-27T12:17:58;36.13;;;16.52;;
85662;SDS011;76094;55.506;37.950;2024-01-27T12:20:25;33.33;;;17.15;;
85662;SDS011;76094;55.506;37.950;2024-01-27T12:23:01;35.03;;;17.95;;
85662;SDS011;76094;55.506;37.950;2024-01-27T12:25:28;43.80;;;17.70;;
85662;SDS011;76094;55.506;37.950;2024-01-27T12:27:55;36.22;;;16.25;;
85662;SDS011;76094;55.506;37.950;2024-01-27T12:30:21;35.30;;;16.83;;
85662;SDS011;76094;55.506;37.950;2024-01-27T12:32:47;31.00;;;16.55;;
85662;SDS011;76094;55.506;37.950;2024-01-27T12:35:14;33.95;;;16.58;;
85662;SDS011;76094;55.506;37.950;2024-01-27T12:37:40;30.45;;;15.45;;
85662;SDS011;76094;55.506;37.950;2024-01-27T12:40:18;29.42;;;15.63;;
85662;SDS011;76094;55.506;37.950;2024-01-27T12:42:45;26.23;;;14.38;;
85662;SDS011;76094;55.506;37.950;2024-01-27T12:45:11;28.80;;;15.15;;
85662;SDS011;76094;55.506;37.950;2024-01-27T12:47:38;28.55;;;14.48;;
85662;SDS011;76094;55.506;37.950;2024-01-27T12:50:05;29.00;;;15.23;;
85662;SDS011;76094;55.506;37.950;2024-01-27T12:52:32;26.23;;;13.35;;
85662;SDS011;76094;55.506;37.950;2024-01-27T12:54:59;22.60;;;13.23;;
85662;SDS011;76094;55.506;37.950;2024-01-27T12:57:25;28.42;;;13.82;;
85662;SDS011;76094;55.506;37.950;2024-01-27T12:59:51;27.38;;;13.35;;
85662;SDS011;76094;55.506;37.950;2024-01-27T13:02:17;29.50;;;13.23;;
85662;SDS011;76094;55.506;37.950;2024-01-27T13:04:44;23.35;;;12.95;;
85662;SDS011;76094;55.506;37.950;2024-01-27T13:07:10;23.40;;;12.38;;
85662;SDS011;76094;55.506;37.950;2024-01-27T13:09:36;22.60;;;12.02;;
85662;SDS011;76094;55.506;37.950;2024-01-27T13:12:03;28.05;;;12.07;;
85662;SDS011;76094;55.506;37.950;2024-01-27T13:14:30;21.35;;;12.15;;
85662;SDS011;76094;55.506;37.950;2024-01-27T13:16:56;24.77;;;12.85;;
85662;SDS011;76094;55.506;37.950;2024-01-27T13:19:25;28.17;;;12.82;;
85662;SDS011;76094;55.506;37.950;2024-01-27T13:21:53;30.08;;;12.90;;
85662;SDS011;76094;55.506;37.950;2024-01-27T13:24:19;21.55;;;12.23;;
85662;SDS011;76094;55.506;37.950;2024-01-27T13:26:46;24.17;;;11.73;;
85662;SDS011;76094;55.506;37.950;2024-01-27T13:29:13;19.35;;;10.60;;
85662;SDS011;76094;55.506;37.950;2024-01-27T13:31:39;23.20;;;13.18;;
85662;SDS011;76094;55.506;37.950;2024-01-27T13:34:05;24.77;;;13.10;;
85662;SDS011;76094;55.506;37.950;2024-01-27T13:36:32;25.90;;;13.50;;
85662;SDS011;76094;55.506;37.950;2024-01-27T13:38:59;25.45;;;13.48;;
85662;SDS011;76094;55.506;37.950;2024-01-27T13:41:26;29.65;;;13.27;;
85662;SDS011;76094;55.506;37.950;2024-01-27T13:43:52;25.50;;;13.98;;
85662;SDS011;76094;55.506;37.950;2024-01-27T13:46:19;25.55;;;14.60;;
85662;SDS011;76094;55.506;37.950;2024-01-27T13:48:45;30.15;;;14.80;;
85662;SDS011;76094;55.506;37.950;2024-01-27T13:51:12;30.50;;;14.18;;
85662;SDS011;76094;55.506;37.950;2024-01-27T13:53:38;28.77;;;15.48;;
85662;SDS011;76094;55.506;37.950;2024-01-27T13:56:05;28.38;;;14.30;;
85662;SDS011;76094;55.506;37.950;2024-01-27T13:58:32;28.20;;;15.27;;
85662;SDS011;76094;55.506;37.950;2024-01-27T14:00:58;34.45;;;15.60;;
85662;SDS011;76094;55.506;37.950;2024-01-27T14:03:25;29.83;;;15.20;;
85662;SDS011;76094;55.506;37.950;2024-01-27T14:05:52;28.90;;;14.73;;
85662;SDS011;76094;55.506;37.950;2024-01-27T14:08:18;28.60;;;15.25;;